ACA792 KLAX-CYYZ
Flight info
| Callsign | ACA792 |
|---|---|
| Flight time | N/A |
| Altitude | 35000 |
| Route | DOTSS2 CLEEE DCT PKE J134 DRK DCT TBE DCT GCK DCT IRK DCT GIJ DCT QWERI NUBER6 |
| Aircraft | B38M/M-SDE1FGHILORVWXY/HB1 |
Departure
| Time | 2026-05-04 02:56 |
|---|---|
| Airport | Los Angeles International Airport (KLAX) |
Arrival
| Time | N/A |
|---|---|
| Airport | Toronto Pearson International Airport (CYYZ) |
| Time | Latitude | Longitude | Altitude | Speed | Heading |
|---|---|---|---|---|---|
| 2026-05-04 02:29 | 33.94186 | -118.40148 | 95 ft | 0 kts | 262° |
| 2026-05-04 02:50 | 33.94066 | -118.40073 | 96 ft | 26 kts | 174° |
| 2026-05-04 02:51 | 33.94063 | -118.40072 | 95 ft | 0 kts | 174° |
| 2026-05-04 02:52 | 33.94047 | -118.40069 | 96 ft | 3 kts | 171° |
| 2026-05-04 02:52 | 33.94028 | -118.40066 | 97 ft | 2 kts | 172° |
| 2026-05-04 02:52 | 33.94006 | -118.40062 | 96 ft | 5 kts | 173° |
| 2026-05-04 02:53 | 33.93958 | -118.40056 | 98 ft | 9 kts | 173° |
| 2026-05-04 02:53 | 33.93893 | -118.40017 | 100 ft | 13 kts | 123° |
| 2026-05-04 02:53 | 33.93892 | -118.39882 | 98 ft | 21 kts | 84° |
| 2026-05-04 02:53 | 33.93912 | -118.39656 | 98 ft | 31 kts | 84° |
| 2026-05-04 02:54 | 33.93939 | -118.39396 | 97 ft | 33 kts | 82° |
| 2026-05-04 02:54 | 33.93970 | -118.39115 | 96 ft | 34 kts | 83° |
| 2026-05-04 02:54 | 33.93992 | -118.38888 | 96 ft | 10 kts | 84° |
| 2026-05-04 02:54 | 33.93991 | -118.38859 | 96 ft | 4 kts | 101° |
| 2026-05-04 02:55 | 33.93933 | -118.38819 | 97 ft | 8 kts | 185° |
| 2026-05-04 02:55 | 33.93894 | -118.38900 | 98 ft | 16 kts | 263° |
| 2026-05-04 02:55 | 33.93863 | -118.39217 | 98 ft | 72 kts | 263° |
| 2026-05-04 02:56 | 33.93774 | -118.40068 | 101 ft | 130 kts | 263° |
| 2026-05-04 02:56 | 33.93650 | -118.41294 | 192 ft | 167 kts | 262° |
| 2026-05-04 02:56 | 33.93508 | -118.42743 | 698 ft | 181 kts | 261° |
| 2026-05-04 02:56 | 33.93312 | -118.44289 | 1326 ft | 194 kts | 263° |
| 2026-05-04 02:57 | 33.93103 | -118.45848 | 2161 ft | 196 kts | 250° |
| 2026-05-04 02:57 | 33.92271 | -118.47277 | 2612 ft | 222 kts | 226° |
| 2026-05-04 02:57 | 33.90944 | -118.48324 | 3323 ft | 234 kts | 204° |
| 2026-05-04 02:57 | 33.89342 | -118.48712 | 4292 ft | 236 kts | 190° |
| 2026-05-04 02:58 | 33.87653 | -118.48976 | 4962 ft | 253 kts | 189° |
| 2026-05-04 02:58 | 33.86477 | -118.49169 | 5347 ft | 265 kts | 190° |
| 2026-05-04 02:58 | 33.84620 | -118.49481 | 6183 ft | 270 kts | 190° |
| 2026-05-04 02:58 | 33.82135 | -118.49908 | 7362 ft | 274 kts | 191° |
| 2026-05-04 02:59 | 33.80249 | -118.50242 | 8300 ft | 275 kts | 191° |
| 2026-05-04 02:59 | 33.78354 | -118.50576 | 9227 ft | 276 kts | 191° |
| 2026-05-04 02:59 | 33.76448 | -118.50906 | 10126 ft | 277 kts | 191° |
| 2026-05-04 02:59 | 33.74495 | -118.51253 | 10618 ft | 293 kts | 191° |
| 2026-05-04 03:00 | 33.72404 | -118.51591 | 10944 ft | 314 kts | 186° |
| 2026-05-04 03:00 | 33.70933 | -118.51464 | 11245 ft | 326 kts | 170° |
| 2026-05-04 03:00 | 33.68814 | -118.50368 | 11905 ft | 339 kts | 148° |
| 2026-05-04 03:00 | 33.66732 | -118.47527 | 12948 ft | 354 kts | 121° |
| 2026-05-04 03:01 | 33.65986 | -118.44677 | 13743 ft | 365 kts | 100° |
| 2026-05-04 03:01 | 33.65843 | -118.42603 | 14192 ft | 369 kts | 99° |
| 2026-05-04 03:01 | 33.65414 | -118.39594 | 14704 ft | 375 kts | 107° |
| 2026-05-04 03:01 | 33.64785 | -118.36545 | 15300 ft | 380 kts | 110° |
| 2026-05-04 03:02 | 33.64238 | -118.33396 | 15800 ft | 394 kts | 96° |
| 2026-05-04 03:02 | 33.64339 | -118.30091 | 16437 ft | 400 kts | 91° |
| 2026-05-04 03:02 | 33.64408 | -118.26713 | 16903 ft | 409 kts | 93° |
| 2026-05-04 03:02 | 33.64432 | -118.23332 | 17426 ft | 415 kts | 93° |
| 2026-05-04 03:03 | 33.64416 | -118.19843 | 17927 ft | 422 kts | 95° |
| 2026-05-04 03:03 | 33.64424 | -118.16302 | 18417 ft | 428 kts | 93° |
| 2026-05-04 03:03 | 33.64450 | -118.12699 | 18904 ft | 433 kts | 93° |
| 2026-05-04 03:03 | 33.64459 | -118.09078 | 19449 ft | 436 kts | 94° |
| 2026-05-04 03:04 | 33.64460 | -118.05425 | 19947 ft | 440 kts | 94° |
| 2026-05-04 03:04 | 33.64457 | -118.01792 | 20463 ft | 443 kts | 94° |
| 2026-05-04 03:04 | 33.64452 | -117.98078 | 20959 ft | 447 kts | 94° |
| 2026-05-04 03:04 | 33.64446 | -117.94339 | 21461 ft | 450 kts | 94° |
| 2026-05-04 03:05 | 33.64438 | -117.90572 | 21906 ft | 454 kts | 94° |
| 2026-05-04 03:05 | 33.64430 | -117.86761 | 22390 ft | 458 kts | 94° |
| 2026-05-04 03:05 | 33.64420 | -117.82928 | 22882 ft | 461 kts | 94° |
| 2026-05-04 03:05 | 33.64449 | -117.79053 | 23348 ft | 466 kts | 90° |
| 2026-05-04 03:06 | 33.64647 | -117.75152 | 23791 ft | 470 kts | 89° |
| 2026-05-04 03:06 | 33.64852 | -117.71227 | 24137 ft | 475 kts | 89° |
| 2026-05-04 03:06 | 33.65059 | -117.67255 | 24493 ft | 479 kts | 89° |
| 2026-05-04 03:06 | 33.65263 | -117.63308 | 24845 ft | 483 kts | 89° |
| 2026-05-04 03:07 | 33.65472 | -117.59265 | 25177 ft | 487 kts | 89° |
| 2026-05-04 03:07 | 33.65680 | -117.55196 | 25530 ft | 491 kts | 89° |
| 2026-05-04 03:07 | 33.65889 | -117.51089 | 25869 ft | 495 kts | 89° |
| 2026-05-04 03:07 | 33.66098 | -117.46946 | 26172 ft | 500 kts | 89° |
| 2026-05-04 03:08 | 33.66299 | -117.42758 | 26464 ft | 504 kts | 90° |
| 2026-05-04 03:08 | 33.66399 | -117.38537 | 26650 ft | 510 kts | 93° |
| 2026-05-04 03:08 | 33.66278 | -117.34253 | 26821 ft | 515 kts | 99° |
| 2026-05-04 03:08 | 33.65812 | -117.29996 | 27065 ft | 516 kts | 107° |
| 2026-05-04 03:09 | 33.64907 | -117.25900 | 27332 ft | 512 kts | 117° |
| 2026-05-04 03:09 | 33.63468 | -117.22043 | 27549 ft | 504 kts | 129° |
| 2026-05-04 03:09 | 33.61562 | -117.18848 | 27598 ft | 495 kts | 143° |
| 2026-05-04 03:09 | 33.59102 | -117.15978 | 27867 ft | 494 kts | 141° |
| 2026-05-04 03:10 | 33.57204 | -117.12454 | 28500 ft | 516 kts | 120° |
| 2026-05-04 03:10 | 33.56073 | -117.08227 | 29212 ft | 519 kts | 111° |
| 2026-05-04 03:10 | 33.55523 | -117.04024 | 29346 ft | 536 kts | 97° |
| 2026-05-04 03:10 | 33.55888 | -116.99631 | 29788 ft | 531 kts | 71° |
| 2026-05-04 03:11 | 33.57095 | -116.95462 | 30568 ft | 524 kts | 72° |
| 2026-05-04 03:11 | 33.58103 | -116.91262 | 30492 ft | 536 kts | 76° |
| 2026-05-04 03:11 | 33.58980 | -116.86907 | 30428 ft | 546 kts | 78° |
| 2026-05-04 03:12 | 33.60588 | -116.77911 | 30904 ft | 551 kts | 78° |
| 2026-05-04 03:12 | 33.61361 | -116.73394 | 31066 ft | 555 kts | 79° |
| 2026-05-04 03:12 | 33.62128 | -116.68842 | 31343 ft | 557 kts | 79° |
| 2026-05-04 03:12 | 33.62887 | -116.64336 | 31534 ft | 560 kts | 79° |
| 2026-05-04 03:13 | 33.63656 | -116.59754 | 31762 ft | 561 kts | 80° |
| 2026-05-04 03:13 | 33.64428 | -116.55155 | 32116 ft | 563 kts | 79° |
| 2026-05-04 03:13 | 33.65226 | -116.50527 | 32139 ft | 570 kts | 80° |
| 2026-05-04 03:13 | 33.65989 | -116.45844 | 32413 ft | 570 kts | 80° |
| 2026-05-04 03:14 | 33.66704 | -116.41159 | 32440 ft | 574 kts | 85° |
| 2026-05-04 03:14 | 33.67342 | -116.36418 | 32725 ft | 574 kts | 77° |
| 2026-05-04 03:14 | 33.68245 | -116.31751 | 33015 ft | 575 kts | 82° |
| 2026-05-04 03:15 | 33.69857 | -116.22271 | 33344 ft | 582 kts | 79° |
| 2026-05-04 03:15 | 33.70654 | -116.17577 | 33457 ft | 586 kts | 80° |
| 2026-05-04 03:15 | 33.71446 | -116.12778 | 33752 ft | 587 kts | 80° |
| 2026-05-04 03:15 | 33.72254 | -116.07964 | 34009 ft | 588 kts | 77° |
| 2026-05-04 03:16 | 33.73465 | -116.03278 | 34330 ft | 586 kts | 70° |
| 2026-05-04 03:16 | 33.74765 | -115.98649 | 34625 ft | 586 kts | 71° |
| 2026-05-04 03:16 | 33.76055 | -115.94004 | 34772 ft | 587 kts | 71° |
| 2026-05-04 03:17 | 33.78569 | -115.84933 | 34768 ft | 583 kts | 71° |
| 2026-05-04 03:17 | 33.81125 | -115.75679 | 34773 ft | 583 kts | 71° |
| 2026-05-04 03:18 | 33.83656 | -115.66487 | 34769 ft | 583 kts | 71° |
| 2026-05-04 03:18 | 33.86203 | -115.57206 | 34766 ft | 584 kts | 71° |
| 2026-05-04 03:19 | 33.88742 | -115.47928 | 34744 ft | 585 kts | 71° |
| 2026-05-04 03:19 | 33.91276 | -115.38626 | 34739 ft | 585 kts | 71° |
| 2026-05-04 03:20 | 33.93807 | -115.29315 | 34726 ft | 584 kts | 71° |
| 2026-05-04 03:20 | 33.96306 | -115.20082 | 34756 ft | 584 kts | 71° |
| 2026-05-04 03:21 | 33.98816 | -115.10779 | 34738 ft | 584 kts | 71° |
| 2026-05-04 03:21 | 34.01326 | -115.01449 | 34758 ft | 585 kts | 71° |
| 2026-05-04 03:22 | 34.03826 | -114.92122 | 34704 ft | 583 kts | 70° |
| 2026-05-04 03:22 | 34.06309 | -114.82826 | 34735 ft | 583 kts | 71° |
| 2026-05-04 03:23 | 34.08772 | -114.73579 | 34713 ft | 583 kts | 71° |
| 2026-05-04 03:23 | 34.11309 | -114.64293 | 34702 ft | 583 kts | 69° |
| 2026-05-04 03:24 | 34.13926 | -114.55034 | 34715 ft | 583 kts | 69° |
| 2026-05-04 03:24 | 34.16539 | -114.45765 | 34710 ft | 583 kts | 69° |
| 2026-05-04 03:25 | 34.19143 | -114.36494 | 34704 ft | 583 kts | 69° |
| 2026-05-04 03:25 | 34.21725 | -114.27276 | 34698 ft | 583 kts | 69° |
| 2026-05-04 03:26 | 34.24337 | -114.17918 | 34704 ft | 584 kts | 69° |
| 2026-05-04 03:26 | 34.26922 | -114.08621 | 34719 ft | 584 kts | 69° |
| 2026-05-04 03:27 | 34.29504 | -113.99312 | 34720 ft | 584 kts | 69° |
| 2026-05-04 03:27 | 34.32063 | -113.90059 | 34754 ft | 584 kts | 69° |
| 2026-05-04 03:28 | 34.34617 | -113.80785 | 34718 ft | 581 kts | 69° |
| 2026-05-04 03:28 | 34.37167 | -113.71501 | 34719 ft | 581 kts | 69° |
| 2026-05-04 03:29 | 34.39702 | -113.62233 | 34740 ft | 580 kts | 69° |
| 2026-05-04 03:29 | 34.42227 | -113.52976 | 34743 ft | 579 kts | 69° |
| 2026-05-04 03:30 | 34.44733 | -113.43757 | 34746 ft | 580 kts | 69° |
| 2026-05-04 03:30 | 34.47278 | -113.34363 | 34761 ft | 578 kts | 69° |
| 2026-05-04 03:31 | 34.49775 | -113.25111 | 34757 ft | 578 kts | 69° |
| 2026-05-04 03:31 | 34.52250 | -113.15910 | 34768 ft | 578 kts | 69° |
| 2026-05-04 03:32 | 34.54738 | -113.06634 | 34780 ft | 577 kts | 69° |
| 2026-05-04 03:32 | 34.57209 | -112.97387 | 34796 ft | 576 kts | 69° |
| 2026-05-04 03:33 | 34.59671 | -112.88141 | 34792 ft | 576 kts | 69° |
| 2026-05-04 03:33 | 34.62129 | -112.78881 | 34814 ft | 576 kts | 69° |
| 2026-05-04 03:34 | 34.64554 | -112.69712 | 34820 ft | 572 kts | 69° |
| 2026-05-04 03:34 | 34.66983 | -112.60501 | 34831 ft | 573 kts | 69° |
| 2026-05-04 03:35 | 34.69404 | -112.51292 | 34826 ft | 572 kts | 69° |
| 2026-05-04 03:35 | 34.70716 | -112.46736 | 35011 ft | 569 kts | 63° |
| 2026-05-04 03:35 | 34.72188 | -112.42282 | 35045 ft | 569 kts | 63° |
| 2026-05-04 03:36 | 34.75143 | -112.33416 | 34998 ft | 569 kts | 63° |
| 2026-05-04 03:36 | 34.78110 | -112.24495 | 34950 ft | 569 kts | 63° |
| 2026-05-04 03:37 | 34.81070 | -112.15573 | 34909 ft | 569 kts | 63° |
| 2026-05-04 03:37 | 34.84024 | -112.06642 | 34918 ft | 568 kts | 63° |
| 2026-05-04 03:38 | 34.86967 | -111.97718 | 34960 ft | 567 kts | 63° |
| 2026-05-04 03:38 | 34.89879 | -111.88861 | 34998 ft | 568 kts | 63° |
| 2026-05-04 03:39 | 34.92808 | -111.79928 | 35015 ft | 568 kts | 63° |
| 2026-05-04 03:39 | 34.95724 | -111.71005 | 34970 ft | 563 kts | 63° |
| 2026-05-04 03:40 | 34.98618 | -111.62128 | 35047 ft | 564 kts | 63° |
| 2026-05-04 03:40 | 35.01509 | -111.53231 | 34909 ft | 564 kts | 63° |
| 2026-05-04 03:41 | 35.04387 | -111.44345 | 34929 ft | 559 kts | 64° |
| 2026-05-04 03:41 | 35.07205 | -111.35625 | 34894 ft | 555 kts | 64° |
| 2026-05-04 03:42 | 35.10030 | -111.26853 | 34877 ft | 556 kts | 64° |
| 2026-05-04 03:42 | 35.12854 | -111.18062 | 34880 ft | 556 kts | 64° |
| 2026-05-04 03:43 | 35.15651 | -111.09328 | 34887 ft | 554 kts | 64° |
| 2026-05-04 03:43 | 35.18445 | -111.00578 | 34836 ft | 552 kts | 64° |
| 2026-05-04 03:44 | 35.21233 | -110.91818 | 34841 ft | 553 kts | 64° |
| 2026-05-04 03:44 | 35.24017 | -110.83049 | 34836 ft | 553 kts | 64° |
| 2026-05-04 03:45 | 35.26794 | -110.74275 | 34833 ft | 554 kts | 64° |
| 2026-05-04 03:45 | 35.29553 | -110.65531 | 34830 ft | 554 kts | 64° |
| 2026-05-04 03:46 | 35.32320 | -110.56735 | 34828 ft | 554 kts | 64° |
| 2026-05-04 03:46 | 35.35085 | -110.47922 | 34831 ft | 554 kts | 65° |
| 2026-05-04 03:47 | 35.37837 | -110.39121 | 34828 ft | 552 kts | 64° |
| 2026-05-04 03:47 | 35.40558 | -110.30396 | 34837 ft | 552 kts | 64° |
| 2026-05-04 03:48 | 35.43290 | -110.21607 | 34837 ft | 552 kts | 64° |
| 2026-05-04 03:48 | 35.46016 | -110.12811 | 34821 ft | 552 kts | 64° |
| 2026-05-04 03:49 | 35.48703 | -110.04113 | 34840 ft | 546 kts | 64° |
| 2026-05-04 03:49 | 35.51388 | -109.95397 | 34835 ft | 546 kts | 64° |
| 2026-05-04 03:50 | 35.54070 | -109.86666 | 34844 ft | 547 kts | 64° |
| 2026-05-04 03:50 | 35.56747 | -109.77915 | 34857 ft | 546 kts | 66° |
| 2026-05-04 03:51 | 35.59334 | -109.69248 | 34847 ft | 536 kts | 67° |
| 2026-05-04 03:51 | 35.62115 | -109.60898 | 34847 ft | 535 kts | 69° |
| 2026-05-04 03:52 | 35.64570 | -109.52279 | 34868 ft | 535 kts | 66° |
| 2026-05-04 03:52 | 35.67148 | -109.43706 | 34920 ft | 534 kts | 66° |
| 2026-05-04 03:53 | 35.69724 | -109.35166 | 34976 ft | 532 kts | 66° |
| 2026-05-04 03:53 | 35.72267 | -109.26710 | 35020 ft | 533 kts | 66° |
| 2026-05-04 03:54 | 35.74833 | -109.18154 | 35051 ft | 533 kts | 66° |
| 2026-05-04 03:54 | 35.77371 | -109.09667 | 35086 ft | 532 kts | 66° |
| 2026-05-04 03:55 | 35.79915 | -109.01132 | 35042 ft | 529 kts | 66° |
| 2026-05-04 03:55 | 35.82297 | -108.93117 | 35001 ft | 529 kts | 66° |
| 2026-05-04 03:56 | 35.84824 | -108.84593 | 34958 ft | 530 kts | 66° |
| 2026-05-04 03:56 | 35.87343 | -108.76066 | 34904 ft | 529 kts | 66° |
| 2026-05-04 03:57 | 35.89855 | -108.67540 | 34875 ft | 530 kts | 66° |
| 2026-05-04 03:57 | 35.92299 | -108.59217 | 34876 ft | 530 kts | 66° |
| 2026-05-04 03:58 | 35.96050 | -108.46397 | 34882 ft | 530 kts | 66° |
| 2026-05-04 03:58 | 35.98493 | -108.38016 | 34903 ft | 533 kts | 66° |
| 2026-05-04 03:59 | 36.00864 | -108.29858 | 34903 ft | 534 kts | 66° |
| 2026-05-04 03:59 | 36.03333 | -108.21336 | 34897 ft | 534 kts | 66° |
| 2026-05-04 04:00 | 36.05811 | -108.12756 | 34911 ft | 534 kts | 66° |
| 2026-05-04 04:00 | 36.08301 | -108.04109 | 34910 ft | 534 kts | 66° |
| 2026-05-04 04:01 | 36.10783 | -107.95465 | 34960 ft | 534 kts | 66° |
| 2026-05-04 04:01 | 36.13255 | -107.86826 | 34947 ft | 537 kts | 66° |
| 2026-05-04 04:02 | 36.15733 | -107.78136 | 34943 ft | 537 kts | 66° |
| 2026-05-04 04:02 | 36.18183 | -107.69521 | 34958 ft | 538 kts | 66° |
| 2026-05-04 04:03 | 36.20706 | -107.60619 | 34951 ft | 538 kts | 66° |
| 2026-05-04 04:03 | 36.22960 | -107.52643 | 34951 ft | 538 kts | 66° |
| 2026-05-04 04:04 | 36.25242 | -107.44543 | 34959 ft | 539 kts | 66° |
| 2026-05-04 04:04 | 36.27633 | -107.36033 | 34967 ft | 539 kts | 66° |
| 2026-05-04 04:05 | 36.30079 | -107.27296 | 34958 ft | 539 kts | 66° |
| 2026-05-04 04:05 | 36.32463 | -107.18754 | 34950 ft | 539 kts | 66° |
| 2026-05-04 04:06 | 36.34894 | -107.10015 | 34948 ft | 540 kts | 66° |
| 2026-05-04 04:06 | 36.37335 | -107.01214 | 34953 ft | 540 kts | 66° |
| 2026-05-04 04:07 | 36.39774 | -106.92390 | 34947 ft | 540 kts | 66° |
| 2026-05-04 04:07 | 36.42205 | -106.83563 | 34909 ft | 541 kts | 66° |
| 2026-05-04 04:08 | 36.44617 | -106.74779 | 34931 ft | 541 kts | 66° |
| 2026-05-04 04:08 | 36.47037 | -106.65940 | 34945 ft | 541 kts | 66° |
| 2026-05-04 04:09 | 36.49453 | -106.57078 | 34922 ft | 541 kts | 66° |
| 2026-05-04 04:09 | 36.51864 | -106.48210 | 34932 ft | 542 kts | 66° |
| 2026-05-04 04:10 | 36.54270 | -106.39330 | 34935 ft | 542 kts | 66° |
| 2026-05-04 04:10 | 36.56652 | -106.30512 | 34929 ft | 540 kts | 66° |
| 2026-05-04 04:11 | 36.59031 | -106.21673 | 34928 ft | 539 kts | 66° |
| 2026-05-04 04:11 | 36.61407 | -106.12814 | 34950 ft | 540 kts | 66° |
| 2026-05-04 04:12 | 36.63776 | -106.03952 | 34941 ft | 539 kts | 66° |
| 2026-05-04 04:12 | 36.66125 | -105.95135 | 34946 ft | 540 kts | 66° |
| 2026-05-04 04:13 | 36.68487 | -105.86240 | 34929 ft | 541 kts | 66° |
| 2026-05-04 04:13 | 36.70841 | -105.77343 | 34947 ft | 541 kts | 66° |
| 2026-05-04 04:14 | 36.73191 | -105.68431 | 34942 ft | 541 kts | 66° |
| 2026-05-04 04:14 | 36.75516 | -105.59583 | 34948 ft | 540 kts | 66° |
| 2026-05-04 04:15 | 36.77843 | -105.50696 | 34962 ft | 538 kts | 66° |
| 2026-05-04 04:15 | 36.80159 | -105.41826 | 34962 ft | 538 kts | 66° |
| 2026-05-04 04:16 | 36.82471 | -105.32937 | 34948 ft | 539 kts | 66° |
| 2026-05-04 04:16 | 36.84763 | -105.24093 | 34963 ft | 537 kts | 66° |
| 2026-05-04 04:17 | 36.87046 | -105.15253 | 34951 ft | 535 kts | 66° |
| 2026-05-04 04:17 | 36.89324 | -105.06409 | 34922 ft | 535 kts | 66° |
| 2026-05-04 04:18 | 36.91594 | -104.97557 | 34924 ft | 535 kts | 66° |
| 2026-05-04 04:18 | 36.93859 | -104.88697 | 34916 ft | 533 kts | 66° |
| 2026-05-04 04:19 | 36.96085 | -104.79957 | 34913 ft | 531 kts | 66° |
| 2026-05-04 04:19 | 36.98321 | -104.71148 | 34928 ft | 531 kts | 66° |
| 2026-05-04 04:20 | 37.00551 | -104.62335 | 34908 ft | 532 kts | 67° |
| 2026-05-04 04:20 | 37.02773 | -104.53518 | 34903 ft | 532 kts | 67° |
| 2026-05-04 04:21 | 37.04977 | -104.44750 | 34913 ft | 531 kts | 67° |
| 2026-05-04 04:21 | 37.07186 | -104.35936 | 34931 ft | 530 kts | 67° |
| 2026-05-04 04:22 | 37.09388 | -104.27120 | 34934 ft | 529 kts | 67° |
| 2026-05-04 04:22 | 37.11574 | -104.18337 | 34919 ft | 528 kts | 67° |
| 2026-05-04 04:23 | 37.13739 | -104.09609 | 34881 ft | 528 kts | 67° |
| 2026-05-04 04:23 | 37.15908 | -104.00833 | 34787 ft | 528 kts | 67° |
| 2026-05-04 04:24 | 37.18074 | -103.92042 | 34774 ft | 528 kts | 67° |
| 2026-05-04 04:24 | 37.20235 | -103.83239 | 34775 ft | 527 kts | 67° |
| 2026-05-04 04:25 | 37.22378 | -103.74476 | 34771 ft | 524 kts | 67° |
| 2026-05-04 04:25 | 37.24497 | -103.65785 | 34775 ft | 525 kts | 68° |
| 2026-05-04 04:26 | 37.26608 | -103.57013 | 34772 ft | 525 kts | 68° |
| 2026-05-04 04:26 | 37.28732 | -103.48244 | 34782 ft | 524 kts | 67° |
| 2026-05-04 04:27 | 37.30841 | -103.39539 | 34783 ft | 519 kts | 67° |
| 2026-05-04 04:27 | 37.32919 | -103.30931 | 34776 ft | 519 kts | 68° |
| 2026-05-04 04:28 | 37.35008 | -103.22246 | 34770 ft | 519 kts | 68° |
| 2026-05-04 04:28 | 37.37088 | -103.13568 | 34768 ft | 519 kts | 68° |
| 2026-05-04 04:29 | 37.39121 | -103.04900 | 34775 ft | 513 kts | 67° |
| 2026-05-04 04:29 | 37.39946 | -103.00523 | 34741 ft | 520 kts | 81° |
| 2026-05-04 04:29 | 37.40106 | -102.95962 | 34771 ft | 523 kts | 82° |
| 2026-05-04 04:30 | 37.40797 | -102.91532 | 34688 ft | 510 kts | 64° |
| 2026-05-04 04:30 | 37.42273 | -102.87551 | 34761 ft | 500 kts | 54° |
| 2026-05-04 04:30 | 37.44992 | -102.79430 | 34790 ft | 512 kts | 65° |
| 2026-05-04 04:31 | 37.47439 | -102.71041 | 34752 ft | 501 kts | 54° |
| 2026-05-04 04:31 | 37.50731 | -102.63373 | 34686 ft | 508 kts | 69° |
| 2026-05-04 04:32 | 37.51354 | -102.58980 | 34741 ft | 515 kts | 84° |
| 2026-05-04 04:32 | 37.51528 | -102.54459 | 34738 ft | 517 kts | 79° |
| 2026-05-04 04:32 | 37.53169 | -102.45740 | 34784 ft | 512 kts | 70° |
| 2026-05-04 04:33 | 37.55091 | -102.37150 | 34764 ft | 507 kts | 70° |
| 2026-05-04 04:33 | 37.57053 | -102.28631 | 34758 ft | 506 kts | 70° |
| 2026-05-04 04:34 | 37.59001 | -102.20177 | 34746 ft | 506 kts | 70° |
| 2026-05-04 04:34 | 37.60959 | -102.11652 | 34771 ft | 506 kts | 70° |
| 2026-05-04 04:35 | 37.62907 | -102.03134 | 34804 ft | 506 kts | 70° |
| 2026-05-04 04:35 | 37.64832 | -101.94687 | 34816 ft | 498 kts | 70° |
| 2026-05-04 04:36 | 37.66720 | -101.86377 | 34834 ft | 498 kts | 70° |
| 2026-05-04 04:36 | 37.68603 | -101.78054 | 34839 ft | 498 kts | 70° |
| 2026-05-04 04:37 | 37.72317 | -101.61553 | 34824 ft | 497 kts | 71° |
| 2026-05-04 04:38 | 37.74197 | -101.53156 | 34810 ft | 497 kts | 71° |
| 2026-05-04 04:38 | 37.76059 | -101.44806 | 34816 ft | 497 kts | 71° |
| 2026-05-04 04:39 | 37.77920 | -101.36430 | 34814 ft | 497 kts | 71° |
| 2026-05-04 04:39 | 37.79782 | -101.28022 | 34811 ft | 498 kts | 71° |
| 2026-05-04 04:40 | 37.81629 | -101.19647 | 34744 ft | 500 kts | 71° |
| 2026-05-04 04:40 | 37.83454 | -101.11342 | 34757 ft | 500 kts | 71° |
| 2026-05-04 04:41 | 37.85295 | -101.02932 | 34786 ft | 500 kts | 71° |
| 2026-05-04 04:41 | 37.87148 | -100.94447 | 34809 ft | 500 kts | 71° |
| 2026-05-04 04:42 | 37.88992 | -100.85970 | 34830 ft | 500 kts | 71° |
| 2026-05-04 04:42 | 37.90820 | -100.77539 | 34838 ft | 500 kts | 71° |
| 2026-05-04 04:43 | 37.92960 | -100.69208 | 34848 ft | 496 kts | 64° |
| 2026-05-04 04:43 | 37.95507 | -100.61085 | 34840 ft | 496 kts | 64° |
| 2026-05-04 04:44 | 37.98058 | -100.52974 | 34758 ft | 496 kts | 64° |
| 2026-05-04 04:44 | 38.00603 | -100.44867 | 34751 ft | 495 kts | 64° |
| 2026-05-04 04:45 | 38.03126 | -100.36804 | 34758 ft | 495 kts | 65° |
| 2026-05-04 04:47 | 38.11958 | -100.08399 | 34760 ft | 496 kts | 65° |
| 2026-05-04 04:47 | 38.14479 | -100.00236 | 34762 ft | 496 kts | 65° |
| 2026-05-04 04:48 | 38.16993 | -99.92074 | 34763 ft | 496 kts | 65° |
| 2026-05-04 04:49 | 38.23243 | -99.71677 | 34767 ft | 497 kts | 65° |
| 2026-05-04 04:49 | 38.25740 | -99.63485 | 34776 ft | 497 kts | 65° |
| 2026-05-04 04:50 | 38.28231 | -99.55291 | 34761 ft | 495 kts | 65° |
| 2026-05-04 04:50 | 38.30709 | -99.47113 | 34768 ft | 496 kts | 65° |
| 2026-05-04 04:51 | 38.32766 | -99.40304 | 34763 ft | 495 kts | 65° |
| 2026-05-04 04:51 | 38.35633 | -99.30790 | 34780 ft | 495 kts | 65° |
| 2026-05-04 04:52 | 38.38091 | -99.22605 | 34782 ft | 495 kts | 65° |
| 2026-05-04 04:52 | 38.40131 | -99.15792 | 34786 ft | 495 kts | 65° |
| 2026-05-04 04:53 | 38.42582 | -99.07586 | 34806 ft | 495 kts | 65° |
| 2026-05-04 04:53 | 38.45027 | -98.99375 | 34810 ft | 495 kts | 65° |
| 2026-05-04 04:54 | 38.47462 | -98.91174 | 34814 ft | 495 kts | 65° |
| 2026-05-04 04:54 | 38.49880 | -98.83005 | 34809 ft | 495 kts | 66° |
| 2026-05-04 04:55 | 38.52306 | -98.74784 | 34798 ft | 495 kts | 66° |
| 2026-05-04 04:55 | 38.54726 | -98.66556 | 34791 ft | 495 kts | 66° |
| 2026-05-04 04:56 | 38.57139 | -98.58329 | 34772 ft | 494 kts | 66° |
| 2026-05-04 04:56 | 38.59531 | -98.50147 | 34757 ft | 494 kts | 66° |
| 2026-05-04 04:57 | 38.61929 | -98.41923 | 34772 ft | 494 kts | 66° |
| 2026-05-04 04:57 | 38.64325 | -98.33680 | 34780 ft | 494 kts | 66° |
| 2026-05-04 04:58 | 38.66716 | -98.25425 | 34767 ft | 495 kts | 66° |
| 2026-05-04 04:58 | 38.69098 | -98.17177 | 34769 ft | 495 kts | 66° |
| 2026-05-04 04:59 | 38.71462 | -98.08968 | 34771 ft | 495 kts | 66° |
| 2026-05-04 04:59 | 38.73836 | -98.00697 | 34778 ft | 495 kts | 66° |
| 2026-05-04 05:00 | 38.76205 | -97.92418 | 34797 ft | 495 kts | 66° |
| 2026-05-04 05:01 | 38.79751 | -97.79973 | 34808 ft | 496 kts | 66° |
| 2026-05-04 05:01 | 38.82093 | -97.71726 | 34798 ft | 495 kts | 66° |
| 2026-05-04 05:02 | 38.84442 | -97.63425 | 34802 ft | 495 kts | 66° |
| 2026-05-04 05:02 | 38.86788 | -97.55111 | 34799 ft | 496 kts | 66° |
| 2026-05-04 05:03 | 38.89129 | -97.46786 | 34800 ft | 496 kts | 66° |
| 2026-05-04 05:04 | 38.93784 | -97.30153 | 34780 ft | 497 kts | 67° |
| 2026-05-04 05:04 | 38.96109 | -97.21806 | 34780 ft | 497 kts | 67° |
| 2026-05-04 05:06 | 39.05343 | -96.88386 | 34794 ft | 497 kts | 67° |
| 2026-05-04 05:07 | 39.07638 | -96.80010 | 34797 ft | 497 kts | 67° |
| 2026-05-04 05:07 | 39.09919 | -96.71661 | 34802 ft | 497 kts | 67° |
| 2026-05-04 05:09 | 39.20166 | -96.33814 | 34802 ft | 500 kts | 67° |
| 2026-05-04 05:10 | 39.22436 | -96.25349 | 34806 ft | 500 kts | 67° |
| 2026-05-04 05:10 | 39.24703 | -96.16871 | 34805 ft | 500 kts | 68° |
| 2026-05-04 05:11 | 39.26965 | -96.08380 | 34825 ft | 500 kts | 68° |
| 2026-05-04 05:11 | 39.29208 | -95.99936 | 34809 ft | 501 kts | 68° |
| 2026-05-04 05:12 | 39.31461 | -95.91422 | 34804 ft | 501 kts | 68° |
| 2026-05-04 05:12 | 39.33709 | -95.82900 | 34807 ft | 501 kts | 68° |
| 2026-05-04 05:13 | 39.35952 | -95.74370 | 34805 ft | 501 kts | 68° |
| 2026-05-04 05:13 | 39.38189 | -95.65828 | 34808 ft | 502 kts | 68° |
| 2026-05-04 05:14 | 39.40410 | -95.57322 | 34804 ft | 503 kts | 68° |
| 2026-05-04 05:14 | 39.42638 | -95.48758 | 34805 ft | 503 kts | 68° |
| 2026-05-04 05:15 | 39.44862 | -95.40184 | 34807 ft | 503 kts | 68° |
| 2026-05-04 05:15 | 39.47079 | -95.31605 | 34825 ft | 502 kts | 68° |
| 2026-05-04 05:16 | 39.49290 | -95.23016 | 34816 ft | 504 kts | 68° |
| 2026-05-04 05:16 | 39.51486 | -95.14455 | 34818 ft | 504 kts | 68° |
| 2026-05-04 05:17 | 39.53689 | -95.05843 | 34819 ft | 504 kts | 68° |
| 2026-05-04 05:17 | 39.55886 | -94.97217 | 34825 ft | 504 kts | 68° |
| 2026-05-04 05:18 | 39.58079 | -94.88579 | 34829 ft | 505 kts | 68° |
| 2026-05-04 05:18 | 39.60257 | -94.79972 | 34824 ft | 505 kts | 68° |
| 2026-05-04 05:19 | 39.62440 | -94.71312 | 34823 ft | 505 kts | 68° |
| 2026-05-04 05:19 | 39.64615 | -94.62653 | 34812 ft | 505 kts | 68° |
| 2026-05-04 05:20 | 39.66788 | -94.53973 | 34813 ft | 506 kts | 68° |
| 2026-05-04 05:20 | 39.68943 | -94.45331 | 34820 ft | 507 kts | 68° |
| 2026-05-04 05:21 | 39.71108 | -94.36615 | 34819 ft | 507 kts | 68° |
| 2026-05-04 05:21 | 39.73269 | -94.27890 | 34862 ft | 507 kts | 68° |
| 2026-05-04 05:22 | 39.75418 | -94.19177 | 34830 ft | 507 kts | 68° |
| 2026-05-04 05:22 | 39.77554 | -94.10488 | 34834 ft | 508 kts | 68° |
| 2026-05-04 05:23 | 39.79697 | -94.01738 | 34837 ft | 508 kts | 68° |
| 2026-05-04 05:23 | 39.81836 | -93.92968 | 34837 ft | 508 kts | 68° |
| 2026-05-04 05:24 | 39.83967 | -93.84202 | 34835 ft | 508 kts | 68° |
| 2026-05-04 05:24 | 39.86079 | -93.75480 | 34850 ft | 509 kts | 68° |
| 2026-05-04 05:25 | 39.88197 | -93.66704 | 34841 ft | 508 kts | 68° |
| 2026-05-04 05:25 | 39.90311 | -93.57909 | 34838 ft | 508 kts | 68° |
| 2026-05-04 05:26 | 39.92415 | -93.49121 | 34844 ft | 509 kts | 68° |
| 2026-05-04 05:26 | 39.94503 | -93.40373 | 34844 ft | 509 kts | 68° |
| 2026-05-04 05:28 | 40.02856 | -93.05074 | 34882 ft | 510 kts | 68° |
| 2026-05-04 05:29 | 40.04918 | -92.96283 | 34865 ft | 511 kts | 68° |
| 2026-05-04 05:29 | 40.06992 | -92.87403 | 34866 ft | 511 kts | 68° |
| 2026-05-04 05:31 | 40.15692 | -92.52208 | 34868 ft | 508 kts | 63° |
| 2026-05-04 05:32 | 40.18233 | -92.43590 | 34862 ft | 508 kts | 64° |
| 2026-05-04 05:33 | 40.22012 | -92.30636 | 34865 ft | 508 kts | 64° |
| 2026-05-04 05:33 | 40.24507 | -92.22047 | 34873 ft | 508 kts | 64° |
| 2026-05-04 05:34 | 40.27009 | -92.13408 | 34864 ft | 507 kts | 64° |
| 2026-05-04 05:34 | 40.29501 | -92.04772 | 34858 ft | 507 kts | 64° |
| 2026-05-04 05:35 | 40.31989 | -91.96122 | 34847 ft | 507 kts | 64° |
| 2026-05-04 05:35 | 40.34454 | -91.87526 | 34865 ft | 507 kts | 64° |
| 2026-05-04 05:36 | 40.36924 | -91.78880 | 34843 ft | 506 kts | 64° |
| 2026-05-04 05:36 | 40.39388 | -91.70229 | 34835 ft | 506 kts | 64° |
| 2026-05-04 05:37 | 40.41842 | -91.61579 | 34832 ft | 506 kts | 64° |
| 2026-05-04 05:37 | 40.44293 | -91.52917 | 34831 ft | 506 kts | 64° |
| 2026-05-04 05:38 | 40.47971 | -91.40054 | 34852 ft | 497 kts | 63° |
| 2026-05-04 05:38 | 40.50324 | -91.31529 | 34834 ft | 495 kts | 65° |
| 2026-05-04 05:39 | 40.53873 | -91.18768 | 34826 ft | 496 kts | 65° |
| 2026-05-04 05:40 | 40.57407 | -91.06138 | 34830 ft | 487 kts | 63° |
| 2026-05-04 05:40 | 40.59717 | -90.97735 | 34833 ft | 489 kts | 65° |
| 2026-05-04 05:41 | 40.62029 | -90.89331 | 34850 ft | 489 kts | 65° |
| 2026-05-04 05:41 | 40.64325 | -90.80979 | 34852 ft | 489 kts | 65° |
| 2026-05-04 05:42 | 40.66631 | -90.72566 | 34859 ft | 489 kts | 65° |
| 2026-05-04 05:42 | 40.68932 | -90.64143 | 34856 ft | 489 kts | 66° |
| 2026-05-04 05:43 | 40.71225 | -90.55721 | 34850 ft | 488 kts | 66° |
| 2026-05-04 05:45 | 40.80298 | -90.22112 | 34843 ft | 485 kts | 66° |
| 2026-05-04 05:47 | 40.89226 | -89.88591 | 34831 ft | 484 kts | 66° |
| 2026-05-04 05:47 | 40.91444 | -89.80195 | 34856 ft | 484 kts | 66° |
| 2026-05-04 05:48 | 40.93646 | -89.71825 | 34822 ft | 481 kts | 66° |
| 2026-05-04 05:48 | 40.95822 | -89.63528 | 34827 ft | 481 kts | 66° |
| 2026-05-04 05:49 | 40.98010 | -89.55159 | 34825 ft | 481 kts | 66° |
| 2026-05-04 05:49 | 41.00189 | -89.46796 | 34824 ft | 481 kts | 66° |
| 2026-05-04 05:51 | 41.08833 | -89.13326 | 34820 ft | 480 kts | 67° |
| 2026-05-04 05:52 | 41.10981 | -89.04938 | 34815 ft | 480 kts | 67° |
| 2026-05-04 05:52 | 41.13107 | -88.96603 | 34847 ft | 480 kts | 66° |
| 2026-05-04 05:54 | 41.21551 | -88.63218 | 34814 ft | 477 kts | 67° |
| 2026-05-04 05:55 | 41.23645 | -88.54869 | 34810 ft | 477 kts | 67° |
| 2026-05-04 05:55 | 41.25722 | -88.46556 | 34823 ft | 477 kts | 67° |
| 2026-05-04 05:56 | 41.27802 | -88.38199 | 34807 ft | 476 kts | 67° |
| 2026-05-04 05:56 | 41.29877 | -88.29834 | 34804 ft | 476 kts | 67° |
| 2026-05-04 05:57 | 41.31933 | -88.21521 | 34803 ft | 476 kts | 67° |
| 2026-05-04 05:57 | 41.33993 | -88.13158 | 34824 ft | 476 kts | 67° |
| 2026-05-04 05:58 | 41.36043 | -88.04806 | 34813 ft | 473 kts | 67° |
| 2026-05-04 05:58 | 41.38080 | -87.96476 | 34813 ft | 473 kts | 67° |
| 2026-05-04 05:59 | 41.40109 | -87.88148 | 34811 ft | 473 kts | 67° |
| 2026-05-04 05:59 | 41.42122 | -87.79860 | 34805 ft | 473 kts | 67° |
| 2026-05-04 06:00 | 41.44139 | -87.71524 | 34806 ft | 473 kts | 67° |
| 2026-05-04 06:00 | 41.46155 | -87.63161 | 34806 ft | 474 kts | 67° |
| 2026-05-04 06:01 | 41.48165 | -87.54794 | 34810 ft | 474 kts | 67° |
| 2026-05-04 06:03 | 41.56132 | -87.21325 | 34810 ft | 473 kts | 67° |
| 2026-05-04 06:05 | 41.64979 | -86.83583 | 34825 ft | 474 kts | 68° |
| 2026-05-04 06:06 | 41.66934 | -86.75166 | 34822 ft | 474 kts | 68° |
| 2026-05-04 06:06 | 41.68871 | -86.66796 | 34823 ft | 474 kts | 68° |
| 2026-05-04 06:07 | 41.70814 | -86.58372 | 34825 ft | 474 kts | 68° |
| 2026-05-04 06:07 | 41.72752 | -86.49938 | 34848 ft | 474 kts | 68° |
| 2026-05-04 06:08 | 41.74683 | -86.41502 | 34836 ft | 474 kts | 68° |
| 2026-05-04 06:08 | 41.76598 | -86.33119 | 34833 ft | 473 kts | 67° |
| 2026-05-04 06:09 | 41.78646 | -86.24746 | 34827 ft | 473 kts | 66° |
| 2026-05-04 06:11 | 41.86801 | -85.91246 | 34828 ft | 473 kts | 67° |
| 2026-05-04 06:13 | 41.94873 | -85.57596 | 34826 ft | 474 kts | 67° |
| 2026-05-04 06:14 | 42.01854 | -85.28092 | 34833 ft | 475 kts | 67° |
| 2026-05-04 06:15 | 42.03839 | -85.19628 | 34842 ft | 475 kts | 67° |
| 2026-05-04 06:15 | 42.05807 | -85.11209 | 34840 ft | 475 kts | 68° |
| 2026-05-04 06:16 | 42.07782 | -85.02729 | 34845 ft | 475 kts | 68° |
| 2026-05-04 06:16 | 42.09754 | -84.94225 | 34848 ft | 476 kts | 68° |
| 2026-05-04 06:17 | 42.11706 | -84.85778 | 34836 ft | 475 kts | 68° |
| 2026-05-04 06:17 | 42.13663 | -84.77277 | 34842 ft | 476 kts | 68° |
| 2026-05-04 06:18 | 42.15617 | -84.68759 | 34845 ft | 476 kts | 68° |
| 2026-05-04 06:20 | 42.23363 | -84.34652 | 34841 ft | 477 kts | 68° |
| 2026-05-04 06:21 | 42.28167 | -84.13230 | 34843 ft | 477 kts | 68° |
| 2026-05-04 06:22 | 42.30064 | -84.04715 | 34840 ft | 477 kts | 69° |
| 2026-05-04 06:25 | 42.43269 | -83.44477 | 34868 ft | 479 kts | 69° |
| 2026-05-04 06:26 | 42.45119 | -83.35900 | 34836 ft | 477 kts | 69° |
| 2026-05-04 06:26 | 42.46975 | -83.27258 | 34832 ft | 478 kts | 69° |
| 2026-05-04 06:27 | 42.51581 | -83.05667 | 34831 ft | 480 kts | 70° |
| 2026-05-04 06:28 | 42.53421 | -82.96977 | 34834 ft | 479 kts | 70° |
| 2026-05-04 06:28 | 42.55253 | -82.88289 | 34835 ft | 479 kts | 70° |
| 2026-05-04 06:29 | 42.57080 | -82.79589 | 34832 ft | 479 kts | 70° |
| 2026-05-04 06:29 | 42.58890 | -82.70933 | 34835 ft | 480 kts | 70° |
| 2026-05-04 06:30 | 42.60696 | -82.62271 | 34837 ft | 481 kts | 70° |
| 2026-05-04 06:30 | 42.62501 | -82.53580 | 34834 ft | 481 kts | 70° |
| 2026-05-04 06:31 | 42.64307 | -82.44845 | 34835 ft | 481 kts | 70° |
| 2026-05-04 06:31 | 42.66107 | -82.36108 | 34847 ft | 481 kts | 70° |
| 2026-05-04 06:33 | 42.79104 | -82.05675 | 34836 ft | 467 kts | 49° |
| 2026-05-04 06:34 | 42.82480 | -81.98063 | 34844 ft | 471 kts | 56° |
| 2026-05-04 06:34 | 42.85709 | -81.90281 | 34831 ft | 471 kts | 56° |
| 2026-05-04 06:36 | 42.98325 | -81.59574 | 33042 ft | 453 kts | 56° |
| 2026-05-04 06:37 | 42.99861 | -81.55813 | 32378 ft | 452 kts | 56° |
| 2026-05-04 06:37 | 43.01386 | -81.52075 | 31857 ft | 448 kts | 56° |
| 2026-05-04 06:37 | 43.02889 | -81.48382 | 31403 ft | 442 kts | 56° |
| 2026-05-04 06:37 | 43.04378 | -81.44723 | 30906 ft | 438 kts | 56° |
| 2026-05-04 06:38 | 43.05853 | -81.41095 | 30359 ft | 436 kts | 56° |
| 2026-05-04 06:38 | 43.07303 | -81.37456 | 29749 ft | 435 kts | 57° |
| 2026-05-04 06:40 | 43.16958 | -81.12734 | 26309 ft | 409 kts | 57° |
| 2026-05-04 06:40 | 43.18292 | -81.09313 | 25856 ft | 407 kts | 57° |
| 2026-05-04 06:40 | 43.19604 | -81.05938 | 25416 ft | 405 kts | 57° |
| 2026-05-04 06:40 | 43.20923 | -81.02542 | 24969 ft | 403 kts | 57° |
| 2026-05-04 06:41 | 43.22232 | -80.99165 | 24531 ft | 401 kts | 57° |
| 2026-05-04 06:41 | 43.23536 | -80.95799 | 24096 ft | 399 kts | 57° |
| 2026-05-04 06:41 | 43.24835 | -80.92440 | 23671 ft | 398 kts | 57° |
| 2026-05-04 06:41 | 43.26126 | -80.89099 | 23227 ft | 396 kts | 57° |
| 2026-05-04 06:42 | 43.27416 | -80.85757 | 22765 ft | 395 kts | 57° |
| 2026-05-04 06:42 | 43.28696 | -80.82437 | 22328 ft | 392 kts | 58° |
| 2026-05-04 06:42 | 43.29964 | -80.79141 | 21914 ft | 389 kts | 58° |
| 2026-05-04 06:44 | 43.38585 | -80.56651 | 19101 ft | 374 kts | 58° |
| 2026-05-04 06:44 | 43.39791 | -80.53492 | 18727 ft | 372 kts | 59° |
| 2026-05-04 06:44 | 43.40974 | -80.50387 | 18336 ft | 371 kts | 59° |
| 2026-05-04 06:45 | 43.42171 | -80.47245 | 17934 ft | 370 kts | 59° |
| 2026-05-04 06:45 | 43.43361 | -80.44117 | 17515 ft | 368 kts | 59° |
| 2026-05-04 06:45 | 43.44544 | -80.41005 | 17114 ft | 366 kts | 59° |
| 2026-05-04 06:45 | 43.45704 | -80.37903 | 16718 ft | 365 kts | 63° |
| 2026-05-04 06:46 | 43.46618 | -80.34640 | 16311 ft | 364 kts | 67° |
| 2026-05-04 06:46 | 43.47511 | -80.31389 | 15937 ft | 362 kts | 66° |
| 2026-05-04 06:46 | 43.48412 | -80.28171 | 15558 ft | 359 kts | 66° |
| 2026-05-04 06:46 | 43.49316 | -80.24976 | 15181 ft | 358 kts | 66° |
| 2026-05-04 06:48 | 43.55254 | -80.03071 | 12459 ft | 349 kts | 68° |
| 2026-05-04 06:48 | 43.56092 | -79.99924 | 12016 ft | 349 kts | 68° |
| 2026-05-04 06:49 | 43.56928 | -79.96781 | 11567 ft | 349 kts | 68° |
| 2026-05-04 06:50 | 43.67109 | -79.79816 | 8487 ft | 334 kts | 31° |
| 2026-05-04 06:51 | 43.69010 | -79.77966 | 8019 ft | 335 kts | 31° |
| 2026-05-04 06:51 | 43.70885 | -79.76140 | 7600 ft | 333 kts | 30° |
| 2026-05-04 06:51 | 43.72775 | -79.74298 | 7189 ft | 332 kts | 30° |
| 2026-05-04 06:51 | 43.74658 | -79.72457 | 6771 ft | 331 kts | 32° |
| 2026-05-04 06:52 | 43.76355 | -79.70259 | 6330 ft | 337 kts | 43° |
| 2026-05-04 06:52 | 43.77945 | -79.67880 | 5884 ft | 336 kts | 43° |
| 2026-05-04 06:52 | 43.79523 | -79.65548 | 5708 ft | 326 kts | 42° |
| 2026-05-04 06:52 | 43.81046 | -79.63313 | 5655 ft | 313 kts | 42° |
| 2026-05-04 06:53 | 43.82513 | -79.61170 | 5603 ft | 300 kts | 41° |
| 2026-05-04 06:53 | 43.83904 | -79.59138 | 5533 ft | 289 kts | 41° |
| 2026-05-04 06:53 | 43.85258 | -79.57162 | 5485 ft | 278 kts | 41° |
| 2026-05-04 06:53 | 43.86565 | -79.55255 | 5415 ft | 267 kts | 41° |
| 2026-05-04 06:54 | 43.87817 | -79.53427 | 5347 ft | 256 kts | 41° |
| 2026-05-04 06:54 | 43.89027 | -79.51660 | 5276 ft | 252 kts | 41° |
| 2026-05-04 06:54 | 43.90238 | -79.49889 | 5241 ft | 253 kts | 40° |
| 2026-05-04 06:54 | 43.91446 | -79.48121 | 5213 ft | 253 kts | 41° |
| 2026-05-04 06:55 | 43.92653 | -79.46352 | 5146 ft | 253 kts | 40° |
| 2026-05-04 06:55 | 43.93864 | -79.44579 | 5117 ft | 252 kts | 40° |
| 2026-05-04 06:55 | 43.95065 | -79.42817 | 5058 ft | 251 kts | 40° |
| 2026-05-04 06:55 | 43.96247 | -79.41085 | 4989 ft | 250 kts | 40° |
| 2026-05-04 06:56 | 43.97440 | -79.39332 | 4926 ft | 250 kts | 40° |
| 2026-05-04 06:57 | 44.05727 | -79.27080 | 4537 ft | 248 kts | 41° |
| 2026-05-04 06:58 | 44.06911 | -79.25332 | 4481 ft | 248 kts | 40° |
| 2026-05-04 06:58 | 44.08094 | -79.23587 | 4425 ft | 248 kts | 40° |
| 2026-05-04 06:58 | 44.09278 | -79.21840 | 4374 ft | 248 kts | 40° |
| 2026-05-04 06:58 | 44.10463 | -79.20091 | 4348 ft | 248 kts | 40° |
| 2026-05-04 06:59 | 44.11650 | -79.18340 | 4281 ft | 248 kts | 40° |
| 2026-05-04 06:59 | 44.12833 | -79.16596 | 4205 ft | 248 kts | 40° |
| 2026-05-04 06:59 | 44.14019 | -79.14847 | 4146 ft | 249 kts | 40° |
| 2026-05-04 06:59 | 44.15195 | -79.13121 | 4109 ft | 248 kts | 40° |
| 2026-05-04 07:01 | 44.23594 | -79.01011 | 4102 ft | 248 kts | 39° |
| 2026-05-04 07:01 | 44.24797 | -78.99283 | 4114 ft | 248 kts | 39° |
| 2026-05-04 07:02 | 44.25974 | -78.97577 | 4107 ft | 248 kts | 39° |
| 2026-05-04 07:02 | 44.27173 | -78.95843 | 4114 ft | 249 kts | 39° |
| 2026-05-04 07:02 | 44.28380 | -78.94108 | 4118 ft | 249 kts | 39° |
| 2026-05-04 07:02 | 44.29582 | -78.92376 | 4108 ft | 248 kts | 39° |
| 2026-05-04 07:03 | 44.30779 | -78.90644 | 4102 ft | 248 kts | 39° |
| 2026-05-04 07:03 | 44.31978 | -78.88913 | 4115 ft | 248 kts | 39° |
| 2026-05-04 07:03 | 44.33185 | -78.87183 | 4110 ft | 248 kts | 39° |
| 2026-05-04 07:03 | 44.34387 | -78.85466 | 4106 ft | 247 kts | 39° |
| 2026-05-04 07:04 | 44.35571 | -78.83769 | 4102 ft | 247 kts | 39° |
| 2026-05-04 07:04 | 44.36772 | -78.82042 | 4119 ft | 248 kts | 39° |
| 2026-05-04 07:04 | 44.37971 | -78.80311 | 4132 ft | 247 kts | 39° |
| 2026-05-04 07:04 | 44.39171 | -78.78594 | 4101 ft | 247 kts | 39° |
| 2026-05-04 07:05 | 44.40375 | -78.76879 | 4116 ft | 248 kts | 39° |
| 2026-05-04 07:05 | 44.41579 | -78.75148 | 4110 ft | 247 kts | 39° |
| 2026-05-04 07:05 | 44.42775 | -78.73424 | 4119 ft | 247 kts | 39° |
| 2026-05-04 07:05 | 44.43981 | -78.71704 | 4129 ft | 248 kts | 39° |
| 2026-05-04 07:06 | 44.46358 | -78.68275 | 4127 ft | 247 kts | 39° |
| 2026-05-04 07:06 | 44.47558 | -78.66558 | 4110 ft | 246 kts | 39° |
| 2026-05-04 07:06 | 44.48759 | -78.64840 | 4099 ft | 247 kts | 39° |
| 2026-05-04 07:07 | 44.49964 | -78.63120 | 4106 ft | 248 kts | 39° |
| 2026-05-04 07:08 | 44.58384 | -78.51107 | 4100 ft | 247 kts | 39° |
| 2026-05-04 07:09 | 44.59588 | -78.49379 | 4118 ft | 248 kts | 39° |
| 2026-05-04 07:09 | 44.60794 | -78.47652 | 4096 ft | 247 kts | 39° |
| 2026-05-04 07:09 | 44.61998 | -78.45923 | 4127 ft | 247 kts | 39° |
| 2026-05-04 07:09 | 44.63193 | -78.44184 | 4096 ft | 248 kts | 39° |
| 2026-05-04 07:10 | 44.64387 | -78.42441 | 4095 ft | 247 kts | 39° |
| 2026-05-04 07:10 | 44.65585 | -78.40702 | 4101 ft | 248 kts | 39° |
| 2026-05-04 07:12 | 44.73936 | -78.28560 | 4098 ft | 246 kts | 39° |
| 2026-05-04 07:12 | 44.75128 | -78.26827 | 4092 ft | 247 kts | 39° |
| 2026-05-04 07:12 | 44.76306 | -78.25117 | 4089 ft | 247 kts | 39° |
| 2026-05-04 07:12 | 44.77505 | -78.23380 | 4117 ft | 247 kts | 39° |
| 2026-05-04 07:13 | 44.78705 | -78.21637 | 4091 ft | 248 kts | 39° |
| 2026-05-04 07:13 | 44.79901 | -78.19894 | 4083 ft | 248 kts | 39° |
| 2026-05-04 07:13 | 44.81099 | -78.18149 | 4103 ft | 247 kts | 39° |
| 2026-05-04 07:14 | 44.85881 | -78.11225 | 4087 ft | 247 kts | 39° |
| 2026-05-04 07:14 | 44.87079 | -78.09486 | 4094 ft | 248 kts | 39° |
| 2026-05-04 07:15 | 44.88280 | -78.07742 | 4085 ft | 248 kts | 39° |
| 2026-05-04 07:15 | 44.89478 | -78.05988 | 4093 ft | 248 kts | 39° |
| 2026-05-04 07:15 | 44.90676 | -78.04240 | 4094 ft | 248 kts | 39° |
| 2026-05-04 07:15 | 44.91877 | -78.02493 | 4088 ft | 248 kts | 39° |
| 2026-05-04 07:16 | 44.93074 | -78.00746 | 4094 ft | 247 kts | 39° |
| 2026-05-04 07:16 | 44.94275 | -77.99003 | 4096 ft | 248 kts | 39° |
| 2026-05-04 07:16 | 44.95072 | -77.97852 | 4103 ft | 248 kts | 39° |
| 2026-05-04 07:16 | 44.96679 | -77.95549 | 4107 ft | 250 kts | 39° |
| 2026-05-04 07:17 | 44.97900 | -77.93790 | 4090 ft | 251 kts | 39° |
| 2026-05-04 07:17 | 44.99120 | -77.92038 | 4095 ft | 250 kts | 38° |
| 2026-05-04 07:17 | 45.00340 | -77.90298 | 4081 ft | 249 kts | 39° |
| 2026-05-04 07:17 | 45.01552 | -77.88557 | 4074 ft | 249 kts | 39° |
| 2026-05-04 07:18 | 45.02359 | -77.87400 | 4069 ft | 250 kts | 38° |
| 2026-05-04 07:18 | 45.03579 | -77.85653 | 4082 ft | 250 kts | 38° |
| 2026-05-04 07:18 | 45.04792 | -77.83893 | 4097 ft | 250 kts | 39° |
| 2026-05-04 07:18 | 45.06408 | -77.81563 | 4068 ft | 251 kts | 38° |
| 2026-05-04 07:19 | 45.07234 | -77.80383 | 4077 ft | 250 kts | 38° |
| 2026-05-04 07:19 | 45.08841 | -77.78053 | 4089 ft | 250 kts | 38° |
| 2026-05-04 07:19 | 45.09662 | -77.76856 | 4083 ft | 251 kts | 39° |
| 2026-05-04 07:19 | 45.11281 | -77.74531 | 4080 ft | 251 kts | 38° |
| 2026-05-04 07:20 | 45.12113 | -77.73345 | 4079 ft | 251 kts | 38° |
| 2026-05-04 07:20 | 45.13321 | -77.71610 | 4076 ft | 251 kts | 38° |
| 2026-05-04 07:20 | 45.14541 | -77.69840 | 4103 ft | 251 kts | 39° |
| 2026-05-04 07:20 | 45.15773 | -77.68084 | 4091 ft | 251 kts | 38° |
| 2026-05-04 07:22 | 45.24305 | -77.55771 | 4083 ft | 249 kts | 38° |
| 2026-05-04 07:22 | 45.25522 | -77.54026 | 4071 ft | 249 kts | 38° |
| 2026-05-04 07:23 | 45.26743 | -77.52273 | 4062 ft | 250 kts | 38° |
| 2026-05-04 07:23 | 45.27963 | -77.50514 | 4063 ft | 250 kts | 38° |
| 2026-05-04 07:23 | 45.29173 | -77.48744 | 4078 ft | 249 kts | 37° |
| 2026-05-04 07:23 | 45.30409 | -77.47026 | 4067 ft | 249 kts | 38° |
| 2026-05-04 07:24 | 45.31636 | -77.45295 | 4062 ft | 248 kts | 38° |
| 2026-05-04 07:24 | 45.32855 | -77.43548 | 4068 ft | 249 kts | 38° |
| 2026-05-04 07:24 | 45.34058 | -77.41817 | 4069 ft | 250 kts | 38° |
| 2026-05-04 07:24 | 45.35292 | -77.40079 | 4065 ft | 249 kts | 38° |
| 2026-05-04 07:25 | 45.36515 | -77.38337 | 4074 ft | 249 kts | 38° |